createdAt,value
2018-07-19T04:33:50.980Z,15.67
2018-07-19T04:36:19.204Z,14.63
2018-07-19T04:38:47.354Z,15.67
2018-07-19T04:41:16.016Z,14.40
2018-07-19T04:43:44.209Z,17.37
2018-07-19T04:46:12.773Z,12.27
2018-07-19T04:48:42.012Z,16.43
2018-07-19T04:51:10.601Z,14.00
2018-07-19T04:53:38.880Z,12.67
2018-07-19T04:56:07.211Z,11.97
2018-07-19T04:58:35.654Z,16.43
2018-07-19T05:01:03.971Z,16.07
2018-07-19T05:03:32.431Z,13.63
2018-07-19T05:06:00.592Z,16.50
2018-07-19T05:08:28.748Z,16.33
2018-07-19T05:10:56.999Z,14.43
2018-07-19T05:13:25.212Z,15.30
2018-07-19T05:15:53.385Z,14.60
2018-07-19T05:18:21.575Z,20.30
2018-07-19T05:20:49.751Z,18.30
2018-07-19T05:23:17.971Z,17.67
2018-07-19T05:25:46.162Z,20.50
2018-07-19T05:28:14.340Z,17.00
2018-07-19T05:30:42.527Z,17.10
2018-07-19T05:33:10.704Z,13.93
2018-07-19T05:35:38.857Z,13.23
2018-07-19T05:38:07.036Z,13.53
2018-07-19T05:40:35.248Z,15.87
2018-07-19T05:43:03.448Z,12.63
2018-07-19T05:45:35.391Z,15.13
2018-07-19T05:50:50.090Z,12.33
2018-07-19T05:53:18.253Z,15.97
2018-07-19T05:55:46.438Z,14.57
2018-07-19T05:58:14.641Z,14.47
2018-07-19T06:00:42.848Z,11.90
2018-07-19T06:03:11.042Z,14.10
2018-07-19T06:05:39.227Z,13.50
2018-07-19T06:08:07.434Z,12.90
2018-07-19T06:10:35.637Z,9.50
2018-07-19T06:13:03.820Z,15.00
2018-07-19T06:15:31.992Z,12.80
2018-07-19T06:18:00.225Z,12.13
2018-07-19T06:20:28.455Z,14.63
2018-07-19T06:22:56.657Z,15.50
2018-07-19T06:25:24.820Z,12.60
2018-07-19T06:27:53.030Z,12.93
2018-07-19T06:30:21.186Z,10.10
2018-07-19T06:32:49.386Z,10.20
2018-07-19T06:35:17.548Z,14.07
2018-07-19T06:37:45.804Z,11.73
2018-07-19T06:40:14.102Z,10.70
2018-07-19T06:42:42.318Z,10.90
2018-07-19T06:45:10.515Z,12.53
2018-07-19T06:47:38.688Z,12.13
2018-07-19T06:50:06.821Z,10.27
2018-07-19T06:52:35.051Z,9.50
2018-07-19T06:55:03.187Z,9.93
2018-07-19T06:57:31.360Z,12.07
2018-07-19T06:59:59.499Z,10.07
2018-07-19T07:02:27.704Z,14.70
2018-07-19T07:04:55.840Z,12.70
2018-07-19T07:07:24.023Z,9.37
2018-07-19T07:09:52.209Z,11.77
2018-07-19T07:12:20.365Z,9.63
2018-07-19T07:14:48.546Z,12.30
2018-07-19T07:17:16.649Z,10.93
2018-07-19T07:19:44.845Z,9.73
2018-07-19T07:22:12.973Z,11.90
2018-07-19T07:24:41.108Z,12.57
2018-07-19T07:27:10.271Z,9.00
2018-07-19T07:29:38.473Z,9.90
2018-07-19T07:32:06.803Z,9.90
2018-07-19T07:34:34.993Z,8.67
2018-07-19T07:37:03.150Z,7.57
2018-07-19T07:39:31.308Z,8.33
2018-07-19T07:41:59.492Z,8.13
2018-07-19T07:44:27.686Z,11.17
2018-07-19T07:46:55.828Z,10.97
2018-07-19T07:49:24.017Z,7.90
2018-07-19T07:51:52.219Z,11.20
2018-07-19T07:54:20.435Z,7.57
2018-07-19T07:56:48.582Z,14.00
2018-07-19T07:59:16.789Z,9.37
2018-07-19T08:01:44.958Z,13.07
2018-07-19T08:04:13.140Z,11.57
2018-07-19T08:06:41.290Z,7.97
2018-07-19T08:09:10.038Z,7.70
2018-07-19T08:11:38.282Z,8.43
2018-07-19T08:14:06.464Z,9.00
2018-07-19T08:16:34.657Z,12.03
2018-07-19T08:19:02.853Z,10.37
2018-07-19T08:21:31.023Z,8.63
2018-07-19T08:23:59.216Z,9.43
2018-07-19T08:26:27.378Z,10.80
2018-07-19T08:28:55.625Z,12.73
2018-07-19T08:31:23.700Z,9.47
2018-07-19T08:33:51.874Z,6.80
2018-07-19T08:36:20.046Z,8.17
2018-07-19T08:38:48.231Z,9.50
2018-07-19T08:41:16.421Z,11.70
2018-07-19T08:43:44.606Z,10.37
2018-07-19T08:46:12.724Z,8.20
2018-07-19T08:48:41.180Z,9.03
2018-07-19T08:51:09.314Z,6.87
2018-07-19T08:53:37.531Z,6.80
2018-07-19T08:56:05.669Z,13.90
2018-07-19T08:58:33.804Z,6.80
2018-07-19T09:01:02.013Z,7.90
2018-07-19T09:03:30.152Z,9.53
2018-07-19T09:05:58.401Z,4.40
2018-07-19T09:08:26.573Z,6.20
2018-07-19T09:10:54.760Z,5.30
2018-07-19T09:13:22.923Z,10.90
2018-07-19T09:15:51.112Z,8.37
2018-07-19T09:18:19.270Z,8.50
2018-07-19T09:20:47.520Z,10.50
2018-07-19T09:23:15.680Z,7.80
2018-07-19T09:25:43.841Z,6.70
2018-07-19T09:28:12.128Z,6.43
2018-07-19T09:30:40.309Z,17.10
2018-07-19T09:33:08.440Z,10.20
2018-07-19T09:35:36.607Z,8.60
2018-07-19T09:38:04.786Z,17.10
2018-07-19T09:40:33.238Z,8.57
2018-07-19T09:43:01.390Z,11.27
2018-07-19T09:45:29.590Z,6.27
2018-07-19T09:47:57.740Z,8.47
2018-07-19T09:50:25.941Z,10.63
2018-07-19T09:52:54.116Z,5.17
2018-07-19T09:55:22.293Z,11.30
2018-07-19T09:57:50.473Z,8.87
2018-07-19T10:00:24.076Z,7.87
2018-07-19T10:02:52.236Z,4.87
2018-07-19T10:05:20.431Z,6.90
2018-07-19T10:07:48.631Z,6.53
2018-07-19T10:10:16.859Z,8.80
2018-07-19T10:12:44.976Z,6.60
2018-07-19T10:15:13.182Z,9.03
2018-07-19T10:17:41.361Z,12.13
2018-07-19T10:20:09.538Z,5.57
2018-07-19T10:22:37.731Z,10.23
2018-07-19T10:25:05.897Z,8.30
2018-07-19T10:27:34.031Z,7.30
2018-07-19T10:30:02.224Z,7.00
2018-07-19T10:32:30.454Z,10.83
2018-07-19T10:34:58.584Z,7.17
2018-07-19T10:37:26.748Z,8.20
2018-07-19T10:39:54.913Z,7.80
2018-07-19T10:42:23.304Z,5.93
2018-07-19T10:44:51.472Z,9.27
2018-07-19T10:47:19.652Z,8.10
2018-07-19T10:49:47.792Z,6.80
2018-07-19T10:52:15.977Z,5.40
2018-07-19T10:54:44.157Z,6.13
2018-07-19T10:57:12.292Z,7.10
2018-07-19T10:59:40.441Z,6.93
2018-07-19T11:02:08.603Z,9.20
2018-07-19T11:04:36.735Z,8.23
2018-07-19T11:07:04.903Z,9.17
2018-07-19T11:09:33.129Z,6.40
2018-07-19T11:12:01.236Z,8.17
2018-07-19T11:14:29.400Z,9.80
2018-07-19T11:16:57.589Z,6.20
2018-07-19T11:19:25.832Z,7.60
2018-07-19T11:21:54.000Z,6.17
2018-07-19T11:24:22.145Z,6.57
2018-07-19T11:26:50.323Z,7.73
2018-07-19T11:29:19.778Z,7.20
2018-07-19T11:31:47.939Z,7.87
2018-07-19T11:34:16.093Z,7.27
2018-07-19T11:36:44.225Z,6.77
2018-07-19T11:39:12.398Z,5.63
2018-07-19T11:41:40.568Z,6.20
2018-07-19T11:44:08.730Z,6.07
2018-07-19T11:46:36.899Z,7.03
2018-07-19T11:49:05.080Z,9.20
2018-07-19T11:51:33.300Z,7.17
2018-07-19T11:54:01.443Z,7.97
2018-07-19T11:56:29.613Z,10.30
2018-07-19T11:58:57.754Z,6.13
2018-07-19T12:01:25.935Z,9.27
2018-07-19T12:03:54.068Z,5.67
2018-07-19T12:06:22.254Z,6.93
2018-07-19T12:08:50.428Z,7.30
2018-07-19T12:11:18.741Z,9.97
2018-07-19T12:13:46.912Z,5.90
2018-07-19T12:16:15.093Z,8.57
2018-07-19T12:18:43.292Z,6.60
2018-07-19T12:21:11.464Z,8.23
2018-07-19T12:23:39.607Z,7.60
2018-07-19T12:26:07.745Z,8.73
2018-07-19T12:28:35.901Z,6.83
2018-07-19T12:31:04.040Z,6.90
2018-07-19T12:33:32.216Z,6.83
2018-07-19T12:36:00.349Z,5.30
2018-07-19T12:38:28.504Z,4.87
2018-07-19T12:40:56.668Z,11.57
2018-07-19T12:43:24.828Z,6.30
2018-07-19T12:45:53.017Z,5.50
2018-07-19T12:48:21.194Z,6.83
2018-07-19T12:50:49.368Z,7.03
2018-07-19T12:53:17.533Z,5.77
2018-07-19T12:55:45.725Z,7.70
2018-07-19T12:58:13.888Z,6.67
2018-07-19T13:00:42.068Z,5.47
2018-07-19T13:03:10.261Z,5.40
2018-07-19T13:05:38.408Z,6.10
2018-07-19T13:08:06.573Z,5.90
2018-07-19T13:10:34.789Z,7.17
2018-07-19T13:13:02.968Z,5.67
2018-07-19T13:15:31.270Z,5.00
2018-07-19T13:17:59.483Z,6.23
2018-07-19T13:20:27.632Z,5.57
2018-07-19T13:22:55.836Z,6.23
2018-07-19T13:25:24.079Z,8.60
2018-07-19T13:27:52.257Z,5.57
2018-07-19T13:30:20.405Z,9.80
2018-07-19T13:32:48.599Z,5.03
2018-07-19T13:35:16.769Z,5.57
2018-07-19T13:37:57.592Z,6.00
2018-07-19T13:40:25.773Z,4.87
2018-07-19T13:42:53.950Z,6.70
2018-07-19T13:45:22.080Z,6.87
2018-07-19T13:47:50.271Z,7.33
2018-07-19T13:50:18.448Z,7.67
2018-07-19T13:52:52.101Z,7.70
2018-07-19T13:55:20.232Z,5.60
2018-07-19T13:57:48.397Z,5.90
2018-07-19T14:00:16.568Z,8.03
2018-07-19T14:02:44.770Z,7.27
2018-07-19T14:05:12.919Z,8.90
2018-07-19T14:07:41.069Z,8.77
2018-07-19T14:10:09.262Z,5.10
2018-07-19T14:12:37.431Z,11.77
2018-07-19T14:15:05.873Z,6.50
2018-07-19T14:17:34.044Z,5.17
2018-07-19T14:20:02.200Z,5.00
2018-07-19T14:22:30.360Z,7.47
2018-07-19T14:24:58.528Z,5.93
2018-07-19T14:27:26.673Z,6.03
2018-07-19T14:29:54.838Z,8.60
2018-07-19T14:32:23.047Z,7.27
2018-07-19T14:34:51.224Z,6.17
2018-07-19T14:37:19.391Z,8.83
2018-07-19T14:39:47.578Z,6.73
2018-07-19T14:42:15.718Z,8.60
2018-07-19T14:44:43.938Z,5.00
2018-07-19T14:47:12.111Z,8.30
2018-07-19T14:49:40.308Z,5.83
2018-07-19T14:52:08.491Z,6.27
2018-07-19T14:54:36.638Z,7.50
2018-07-19T14:57:04.798Z,11.03
2018-07-19T14:59:32.935Z,7.00
2018-07-19T15:02:01.096Z,5.60
2018-07-19T15:04:29.225Z,10.87
2018-07-19T15:06:57.387Z,7.27
2018-07-19T15:09:25.569Z,5.33
2018-07-19T15:11:53.778Z,7.83
2018-07-19T15:14:21.943Z,4.73
2018-07-19T15:16:50.128Z,5.90
2018-07-19T15:19:18.299Z,4.90
2018-07-19T15:21:46.470Z,7.00
2018-07-19T15:24:14.588Z,16.13
2018-07-19T15:26:42.740Z,5.30
2018-07-19T15:29:10.912Z,8.33
2018-07-19T15:31:39.068Z,5.60
2018-07-19T15:34:07.193Z,5.73
2018-07-19T15:36:35.325Z,9.53
2018-07-19T15:39:03.581Z,8.57
2018-07-19T15:41:31.726Z,6.57
2018-07-19T15:43:59.864Z,9.70
2018-07-19T15:46:28.016Z,9.13
2018-07-19T15:48:56.169Z,5.57
2018-07-19T15:51:24.308Z,5.67
2018-07-19T15:53:52.472Z,7.83
2018-07-19T15:56:20.806Z,7.43
2018-07-19T15:58:48.959Z,5.67
2018-07-19T16:01:17.181Z,5.57
2018-07-19T16:03:45.377Z,6.33
2018-07-19T16:06:13.581Z,6.67
2018-07-19T16:08:41.721Z,7.37
2018-07-19T16:11:09.912Z,9.43
2018-07-19T16:13:38.062Z,6.80
2018-07-19T16:16:06.210Z,8.03
2018-07-19T16:18:34.367Z,5.50
2018-07-19T16:21:02.524Z,6.37
2018-07-19T16:23:30.697Z,7.97
2018-07-19T16:25:58.909Z,9.07
2018-07-19T16:28:27.085Z,5.80
2018-07-19T16:30:55.236Z,8.63
2018-07-19T16:33:23.388Z,8.03
2018-07-19T16:35:51.542Z,7.23
2018-07-19T16:38:19.732Z,10.20
2018-07-19T16:40:48.478Z,5.97
2018-07-19T16:43:16.694Z,5.90
2018-07-19T16:45:45.507Z,6.37
2018-07-19T16:48:13.684Z,9.10
2018-07-19T16:50:41.841Z,5.73
2018-07-19T16:53:10.005Z,6.87
2018-07-19T16:55:38.176Z,6.90
2018-07-19T16:58:06.382Z,5.03
2018-07-19T17:00:34.618Z,8.40
2018-07-19T17:03:02.820Z,5.90
2018-07-19T17:05:30.968Z,7.10
2018-07-19T17:07:59.136Z,7.47
2018-07-19T17:10:27.298Z,11.53
2018-07-19T17:12:55.480Z,9.10
2018-07-19T17:15:23.616Z,5.97
2018-07-19T17:17:51.770Z,5.00
2018-07-19T17:20:19.945Z,8.23
2018-07-19T17:22:48.108Z,7.30
2018-07-19T17:25:16.255Z,6.53
2018-07-19T17:27:44.405Z,5.20
2018-07-19T17:30:12.577Z,9.20
2018-07-19T17:32:40.739Z,6.50
2018-07-19T17:35:08.912Z,7.60
2018-07-19T17:37:37.088Z,6.10
2018-07-19T17:40:05.297Z,10.40
2018-07-19T17:42:33.471Z,4.63
2018-07-19T17:45:01.654Z,5.90
2018-07-19T17:47:29.825Z,5.77
2018-07-19T17:49:57.968Z,5.67
2018-07-19T17:52:26.100Z,9.00
2018-07-19T17:54:54.279Z,6.70
2018-07-19T17:57:22.497Z,6.23
2018-07-19T17:59:50.655Z,7.13
2018-07-19T18:02:18.786Z,9.43
2018-07-19T18:04:46.994Z,6.07
2018-07-19T18:07:15.123Z,5.60
2018-07-19T18:09:43.660Z,6.40
2018-07-19T18:12:11.814Z,8.23
2018-07-19T18:14:40.068Z,8.30
2018-07-19T18:17:08.270Z,9.30
2018-07-19T18:19:36.420Z,5.70
2018-07-19T18:22:04.562Z,5.17
2018-07-19T18:24:32.713Z,7.00
2018-07-19T18:27:00.914Z,7.87
2018-07-19T18:29:29.072Z,7.30
2018-07-19T18:31:57.242Z,6.33
2018-07-19T18:34:25.407Z,7.13
2018-07-19T18:36:53.527Z,7.97
2018-07-19T18:39:21.871Z,12.43
2018-07-19T18:41:50.088Z,6.90
2018-07-19T18:44:18.218Z,8.00
2018-07-19T18:46:46.384Z,6.73
2018-07-19T18:49:14.584Z,8.73
2018-07-19T18:51:42.753Z,8.20
2018-07-19T18:54:10.946Z,8.40
2018-07-19T18:56:39.111Z,11.70
2018-07-19T18:59:07.441Z,7.90
2018-07-19T19:01:35.631Z,7.40
2018-07-19T19:04:03.849Z,7.70
2018-07-19T19:06:32.212Z,12.90
2018-07-19T19:09:00.364Z,10.10
2018-07-19T19:11:28.594Z,8.00
2018-07-19T19:13:56.786Z,20.23
2018-07-19T19:16:24.950Z,29.27
2018-07-19T19:18:53.172Z,44.07
2018-07-19T19:21:21.308Z,15.53
2018-07-19T19:23:49.673Z,12.43
2018-07-19T19:26:17.906Z,28.50
2018-07-19T19:28:46.170Z,26.77
2018-07-19T19:31:14.364Z,19.63
2018-07-19T19:33:42.565Z,10.30
2018-07-19T19:36:11.117Z,11.07
2018-07-19T19:38:39.352Z,11.83
2018-07-19T19:46:51.672Z,8.00
2018-07-19T19:49:19.932Z,7.53
2018-07-19T19:51:48.159Z,7.70
2018-07-19T19:54:16.425Z,8.43
2018-07-19T19:56:44.613Z,9.07
2018-07-19T19:59:12.810Z,6.60
2018-07-19T20:01:40.993Z,9.80
2018-07-19T20:04:21.713Z,7.77
2018-07-19T20:06:49.929Z,10.53
2018-07-19T20:09:18.378Z,11.03
2018-07-19T20:11:46.855Z,9.53
2018-07-19T20:14:15.037Z,10.10
2018-07-19T20:16:43.230Z,9.90
2018-07-19T20:19:11.387Z,6.27
2018-07-19T20:21:39.560Z,10.40
2018-07-19T20:24:07.815Z,8.93
2018-07-19T20:26:36.013Z,6.60
2018-07-19T20:29:04.240Z,9.37
2018-07-19T20:31:33.816Z,9.13
2018-07-19T20:34:02.401Z,8.20
2018-07-19T20:36:30.610Z,7.53
2018-07-19T20:39:02.256Z,11.03
2018-07-19T20:41:30.726Z,8.83
2018-07-19T20:43:59.123Z,9.20
2018-07-19T20:46:27.497Z,7.00
2018-07-19T20:48:55.739Z,7.10
2018-07-19T20:51:24.411Z,5.53
2018-07-19T20:53:52.655Z,6.83
2018-07-19T20:56:20.850Z,9.10
2018-07-19T20:58:49.023Z,8.50
2018-07-19T21:01:34.147Z,9.07
2018-07-19T21:04:02.388Z,9.67
2018-07-19T21:06:30.673Z,8.03
2018-07-19T21:08:58.805Z,9.33
2018-07-19T21:11:27.025Z,7.10
2018-07-19T21:13:55.212Z,10.57
2018-07-19T21:16:23.409Z,7.93
2018-07-19T21:18:51.560Z,6.73
2018-07-19T21:21:19.737Z,8.67
2018-07-19T21:23:47.876Z,15.87
2018-07-19T21:26:17.098Z,7.10
2018-07-19T21:28:45.222Z,8.50
2018-07-19T21:31:13.359Z,7.40
2018-07-19T21:33:41.547Z,7.93
2018-07-19T21:36:09.739Z,13.50
2018-07-19T21:38:37.860Z,8.30
2018-07-19T21:41:06.026Z,9.60
2018-07-19T21:43:34.143Z,9.80
2018-07-19T21:46:02.304Z,10.10
2018-07-19T21:48:30.776Z,13.17
2018-07-19T21:50:58.951Z,10.10
2018-07-19T21:53:27.132Z,9.60
2018-07-19T21:55:55.276Z,7.60
2018-07-19T21:58:23.449Z,9.80
2018-07-19T22:00:57.116Z,12.00
